Time;durP1;ratioP1;P1;durP2;ratioP2;P2;SDS_P1;SDS_P2;PMS_P1;PMS_P2;Temp;Humidity;BMP_temperature;BMP_pressure;BME280_temperature;BME280_humidity;BME280_pressure;Samples;Min_cycle;Max_cycle;Signal;HPM_P1;HPM_P2
2021/06/25 00:01:20;;;;;;;7.00;6.28;;;18.30;99.90;;;;;;4859765;29;20060;-78
2021/06/25 00:03:46;;;;;;;6.90;6.05;;;18.30;99.90;;;;;;4860531;29;20116;-78
2021/06/25 00:06:11;;;;;;;8.27;6.57;;;18.30;99.90;;;;;;4859625;29;20033;-78
2021/06/25 00:08:37;;;;;;;8.32;6.63;;;18.20;99.90;;;;;;4860602;29;20021;-78
2021/06/25 00:11:02;;;;;;;7.57;6.80;;;18.20;99.90;;;;;;4860127;29;20025;-78
2021/06/25 00:13:28;;;;;;;7.80;6.82;;;18.20;99.90;;;;;;4858514;29;20033;-79
2021/06/25 00:15:54;;;;;;;7.85;6.78;;;18.20;99.90;;;;;;4854692;29;20071;-77
2021/06/25 00:18:19;;;;;;;7.22;6.32;;;18.20;99.90;;;;;;4853753;29;20055;-77
2021/06/25 00:20:45;;;;;;;7.00;6.32;;;18.20;99.90;;;;;;4842255;29;20026;-77
2021/06/25 00:23:10;;;;;;;9.25;6.90;;;18.20;99.90;;;;;;4859053;29;20036;-77
2021/06/25 00:25:36;;;;;;;7.95;7.15;;;18.20;99.90;;;;;;4860114;29;20029;-77
2021/06/25 00:28:02;;;;;;;7.20;6.47;;;;;;;;;;4859156;29;20069;-78
2021/06/25 00:30:27;;;;;;;8.82;6.90;;;18.10;99.90;;;;;;4857663;29;20434;-77
2021/06/25 00:32:52;;;;;;;13.27;10.45;;;18.10;99.90;;;;;;4853441;29;20077;-76
2021/06/25 00:35:18;;;;;;;12.13;7.50;;;18.10;99.90;;;;;;4853223;29;20495;-76
2021/06/25 00:37:44;;;;;;;8.20;7.07;;;18.20;99.90;;;;;;4856813;29;20029;-80
2021/06/25 00:40:10;;;;;;;9.85;7.93;;;18.20;99.90;;;;;;4859719;29;20033;-77
2021/06/25 00:42:36;;;;;;;7.90;7.10;;;18.20;99.90;;;;;;4858989;29;20578;-77
2021/06/25 00:45:19;;;;;;;9.23;6.80;;;18.20;99.90;;;;;;4859268;29;20103;-76
2021/06/25 00:47:46;;;;;;;9.10;7.13;;;18.20;99.90;;;;;;4852698;29;20037;-77
2021/06/25 00:50:15;;;;;;;8.00;7.03;;;18.10;99.90;;;;;;4860014;29;20208;-77
2021/06/25 00:52:42;;;;;;;7.40;6.55;;;18.10;99.90;;;;;;4859750;29;20030;-77
2021/06/25 00:55:08;;;;;;;8.25;7.25;;;18.10;99.90;;;;;;4859073;29;20403;-76
2021/06/25 00:57:33;;;;;;;9.45;6.70;;;18.10;99.90;;;;;;4859595;29;20050;-76
2021/06/25 00:59:59;;;;;;;11.07;9.27;;;18.10;99.90;;;;;;4857614;29;20037;-80
2021/06/25 01:02:25;;;;;;;13.13;10.00;;;19.80;99.90;;;;;;4859126;29;20030;-77
2021/06/25 01:04:52;;;;;;;12.13;9.52;;;18.10;99.90;;;;;;4862288;29;20096;-77
2021/06/25 01:07:18;;;;;;;8.80;7.72;;;18.10;99.90;;;;;;4864053;29;20074;-77
2021/06/25 01:09:44;;;;;;;13.50;12.07;;;18.10;99.90;;;;;;4860392;29;20144;-76
2021/06/25 01:12:11;;;;;;;8.40;7.55;;;18.00;99.90;;;;;;4857683;29;20037;-77
2021/06/25 01:14:38;;;;;;;10.85;9.68;;;18.00;99.90;;;;;;4858115;29;20460;-77
2021/06/25 01:17:06;;;;;;;8.52;7.30;;;;;;;;;;4856423;29;20032;-77
2021/06/25 01:19:32;;;;;;;8.80;7.90;;;18.00;99.90;;;;;;4860645;29;20085;-77
2021/06/25 01:21:59;;;;;;;14.35;11.30;;;18.10;99.90;;;;;;4861703;29;20034;-77
2021/06/25 01:24:25;;;;;;;9.68;7.68;;;18.00;99.90;;;;;;4859660;29;20443;-77
2021/06/25 01:26:51;;;;;;;9.68;7.20;;;18.00;99.90;;;;;;4855006;29;20041;-77
2021/06/25 01:29:20;;;;;;;9.43;7.47;;;18.00;99.90;;;;;;4855277;29;20045;-78
2021/06/25 01:31:46;;;;;;;7.70;6.90;;;18.10;99.90;;;;;;4858445;29;20029;-77
2021/06/25 01:34:12;;;;;;;9.38;7.53;;;18.10;99.90;;;;;;4859996;29;20033;-77
2021/06/25 01:36:38;;;;;;;7.53;6.43;;;18.10;99.90;;;;;;4858292;29;20030;-77
2021/06/25 01:39:05;;;;;;;7.35;6.65;;;18.10;99.90;;;;;;4857658;29;20026;-77
2021/06/25 01:41:38;;;;;;;8.40;7.60;;;18.10;99.90;;;;;;4855853;29;20025;-77
2021/06/25 01:44:04;;;;;;;10.55;8.50;;;18.00;99.90;;;;;;4854103;29;20066;-76
2021/06/25 01:46:31;;;;;;;9.55;8.55;;;18.00;99.90;;;;;;4854028;29;20045;-76
2021/06/25 01:48:56;;;;;;;11.38;9.80;;;18.00;99.90;;;;;;4853224;29;20032;-77
2021/06/25 01:51:22;;;;;;;12.27;10.30;;;18.00;99.90;;;;;;4853300;29;20029;-77
2021/06/25 01:53:47;;;;;;;11.15;9.95;;;18.00;99.90;;;;;;4855194;29;20034;-78
2021/06/25 01:56:13;;;;;;;12.05;10.55;;;18.00;99.90;;;;;;4856931;29;20049;-77
2021/06/25 01:58:38;;;;;;;11.45;9.52;;;18.00;99.90;;;;;;4839808;29;20041;-77
2021/06/25 02:01:15;;;;;;;10.55;9.48;;;18.00;99.90;;;;;;4839449;29;20029;-77
2021/06/25 02:03:43;;;;;;;11.02;8.43;;;18.00;99.90;;;;;;4839368;29;20034;-77
2021/06/25 02:06:09;;;;;;;10.38;8.00;;;18.00;99.90;;;;;;4839660;29;20040;-77
2021/06/25 02:08:35;;;;;;;10.75;8.10;;;18.00;99.90;;;;;;4839574;29;20034;-77
2021/06/25 02:11:01;;;;;;;11.07;8.85;;;18.00;99.90;;;;;;4840963;29;20037;-77
2021/06/25 02:13:26;;;;;;;10.57;8.48;;;18.00;99.90;;;;;;4840283;29;20034;-77
2021/06/25 02:15:53;;;;;;;11.60;9.02;;;17.90;99.90;;;;;;4838726;29;20036;-76
2021/06/25 02:18:18;;;;;;;10.02;9.02;;;17.90;99.90;;;;;;4834547;29;20065;-77
2021/06/25 02:20:45;;;;;;;9.05;7.78;;;17.90;99.90;;;;;;4838342;29;20105;-76
2021/06/25 02:23:11;;;;;;;12.02;9.30;;;17.80;99.90;;;;;;4839333;29;20098;-77
2021/06/25 02:25:37;;;;;;;8.32;7.53;;;17.90;99.90;;;;;;4837639;29;20040;-77
2021/06/25 02:28:02;;;;;;;9.70;8.75;;;17.90;99.90;;;;;;4838683;29;20113;-77
2021/06/25 02:30:28;;;;;;;10.35;8.98;;;17.90;99.90;;;;;;4835890;29;20088;-77
2021/06/25 02:32:53;;;;;;;9.20;8.30;;;18.00;99.90;;;;;;4834380;29;20034;-78
2021/06/25 02:35:19;;;;;;;10.30;8.90;;;18.00;99.90;;;;;;4834016;29;20038;-77
2021/06/25 02:37:45;;;;;;;11.77;10.30;;;18.00;99.90;;;;;;4833589;29;20148;-77
2021/06/25 02:40:12;;;;;;;10.77;9.65;;;18.00;99.90;;;;;;4837211;29;20030;-77
2021/06/25 02:42:37;;;;;;;9.93;8.93;;;18.10;99.90;;;;;;4841759;29;20037;-84
2021/06/25 02:45:05;;;;;;;13.90;10.15;;;18.00;99.90;;;;;;4840140;29;20040;-78
2021/06/25 02:47:32;;;;;;;14.23;11.98;;;18.00;99.90;;;;;;4844797;29;20129;-77
2021/06/25 02:49:57;;;;;;;12.45;10.70;;;18.00;99.90;;;;;;4842031;29;20060;-77
2021/06/25 02:52:23;;;;;;;12.77;11.43;;;18.00;99.90;;;;;;4839369;29;20444;-77
2021/06/25 02:54:48;;;;;;;13.20;10.52;;;18.00;99.90;;;;;;4835167;29;20050;-78
2021/06/25 02:57:14;;;;;;;11.88;10.50;;;17.90;99.90;;;;;;4848013;29;20057;-77
2021/06/25 02:59:39;;;;;;;12.00;10.57;;;17.90;99.90;;;;;;4856872;29;20471;-77
2021/06/25 03:02:05;;;;;;;14.73;12.85;;;17.90;99.90;;;;;;4858499;29;20068;-77
2021/06/25 03:04:31;;;;;;;12.80;11.00;;;17.90;99.90;;;;;;4861286;29;20117;-78
2021/06/25 03:06:56;;;;;;;10.63;9.60;;;17.90;99.90;;;;;;4857376;29;20089;-83
2021/06/25 03:09:22;;;;;;;13.20;10.85;;;17.90;99.90;;;;;;4859622;29;20034;-79
2021/06/25 03:11:47;;;;;;;11.88;10.68;;;17.90;99.90;;;;;;4859293;29;20040;-79
2021/06/25 03:14:13;;;;;;;11.85;10.65;;;17.90;99.90;;;;;;4860222;29;20132;-77
2021/06/25 03:16:38;;;;;;;12.00;10.75;;;17.90;99.90;;;;;;4862215;29;20036;-77
2021/06/25 03:19:04;;;;;;;12.77;10.70;;;18.00;99.90;;;;;;4861495;29;20032;-77
2021/06/25 03:21:30;;;;;;;13.20;10.55;;;18.00;99.90;;;;;;4864983;29;20041;-77
2021/06/25 03:23:55;;;;;;;12.75;11.43;;;17.90;99.90;;;;;;4866056;29;20025;-77
2021/06/25 03:26:21;;;;;;;12.98;11.52;;;18.00;99.90;;;;;;4867152;29;20494;-78
2021/06/25 03:28:47;;;;;;;12.82;11.20;;;18.00;99.90;;;;;;4867521;29;20037;-77
2021/06/25 03:31:13;;;;;;;13.43;11.73;;;18.00;99.90;;;;;;4866010;29;20026;-77
2021/06/25 03:33:39;;;;;;;13.60;12.20;;;18.10;99.90;;;;;;4850083;29;20478;-77
2021/06/25 03:36:04;;;;;;;15.10;13.60;;;18.00;99.90;;;;;;4866552;29;20062;-78
2021/06/25 03:38:31;;;;;;;14.73;12.23;;;18.00;99.90;;;;;;4867121;29;20025;-77
2021/06/25 03:40:57;;;;;;;16.70;13.30;;;18.00;99.90;;;;;;4866267;29;20037;-77
2021/06/25 03:43:23;;;;;;;14.95;12.55;;;18.00;99.90;;;;;;4866674;29;20483;-76
2021/06/25 03:45:48;;;;;;;14.25;12.70;;;18.00;99.90;;;;;;4867180;29;20033;-78
2021/06/25 03:48:14;;;;;;;14.10;12.70;;;18.00;99.90;;;;;;4866229;29;20101;-78
2021/06/25 03:50:39;;;;;;;13.73;12.32;;;18.00;99.90;;;;;;4864745;29;20037;-78
2021/06/25 03:53:05;;;;;;;14.75;12.23;;;17.90;99.90;;;;;;4864735;29;20036;-78
2021/06/25 03:55:30;;;;;;;17.17;13.68;;;17.90;99.90;;;;;;4867768;29;20038;-78
2021/06/25 03:57:56;;;;;;;16.17;13.88;;;17.90;99.90;;;;;;4868938;29;20049;-77
2021/06/25 04:00:21;;;;;;;17.20;13.82;;;17.90;99.90;;;;;;4867964;29;20077;-77
2021/06/25 04:02:47;;;;;;;15.15;13.65;;;17.90;99.90;;;;;;4866582;29;20108;-75
2021/06/25 04:05:14;;;;;;;17.73;15.27;;;17.70;99.90;;;;;;4865364;29;20034;-78
2021/06/25 04:07:41;;;;;;;17.65;15.18;;;17.80;99.90;;;;;;4864842;29;20646;-77
2021/06/25 04:10:09;;;;;;;18.55;14.73;;;17.80;99.90;;;;;;4863742;29;20033;-76
2021/06/25 04:12:35;;;;;;;16.40;14.70;;;;;;;;;;4860423;29;20452;-76
2021/06/25 04:15:02;;;;;;;17.67;15.20;;;17.90;99.90;;;;;;4859314;29;20093;-75
2021/06/25 04:17:28;;;;;;;16.88;14.60;;;18.00;99.90;;;;;;4860851;29;20034;-75
2021/06/25 04:19:53;;;;;;;16.45;14.63;;;18.10;99.90;;;;;;4861284;29;20026;-75
2021/06/25 04:22:20;;;;;;;15.73;13.73;;;18.00;99.90;;;;;;4859488;29;20086;-76
2021/06/25 04:24:46;;;;;;;18.40;16.20;;;18.10;99.90;;;;;;4856141;29;20081;-75
2021/06/25 04:27:12;;;;;;;16.00;13.30;;;18.20;99.90;;;;;;4860098;29;20117;-76
2021/06/25 04:29:37;;;;;;;17.40;14.63;;;18.20;99.90;;;;;;4858721;29;20177;-76
2021/06/25 04:32:03;;;;;;;17.00;15.30;;;18.40;99.90;;;;;;4858222;29;20452;-78
2021/06/25 04:34:29;;;;;;;17.13;14.35;;;18.30;99.90;;;;;;4855745;29;20037;-76
2021/06/25 04:36:57;;;;;;;20.52;15.93;;;18.30;99.90;;;;;;4860277;29;20386;-78
2021/06/25 04:39:22;;;;;;;15.73;13.63;;;18.40;99.90;;;;;;4859965;29;20033;-77
2021/06/25 04:41:48;;;;;;;15.68;14.07;;;18.40;99.90;;;;;;4859526;29;20026;-77
2021/06/25 04:44:16;;;;;;;17.52;14.23;;;18.30;99.90;;;;;;4859193;29;20044;-77
2021/06/25 04:46:42;;;;;;;16.92;14.00;;;18.30;99.90;;;;;;4854864;29;20491;-78
2021/06/25 04:49:08;;;;;;;15.38;13.77;;;18.30;99.90;;;;;;4858322;29;20059;-78
2021/06/25 04:51:33;;;;;;;16.05;14.35;;;18.40;99.90;;;;;;4859915;29;20022;-79
2021/06/25 04:53:59;;;;;;;16.00;12.75;;;18.40;99.90;;;;;;4857723;29;20041;-80
2021/06/25 04:56:25;;;;;;;16.65;14.00;;;18.50;99.90;;;;;;4862213;29;20048;-80
2021/06/25 04:58:50;;;;;;;14.85;13.02;;;18.60;99.90;;;;;;4866438;29;20029;-80
2021/06/25 05:01:16;;;;;;;13.48;12.07;;;18.60;99.90;;;;;;4866534;29;20111;-77
2021/06/25 05:03:41;;;;;;;13.20;11.25;;;18.60;99.90;;;;;;4865327;29;20029;-77
2021/06/25 05:06:07;;;;;;;12.48;11.27;;;18.70;99.90;;;;;;4865880;29;20037;-79
2021/06/25 05:08:33;;;;;;;15.13;11.95;;;18.80;99.90;;;;;;4865273;29;20037;-79
2021/06/25 05:10:59;;;;;;;16.15;12.60;;;18.90;99.90;;;;;;4865688;29;20041;-78
2021/06/25 05:13:25;;;;;;;13.68;11.43;;;18.90;99.90;;;;;;4864063;29;20029;-76
2021/06/25 05:15:50;;;;;;;13.05;11.13;;;18.80;99.90;;;;;;4867444;29;20036;-77
2021/06/25 05:18:22;;;;;;;17.38;13.13;;;18.90;99.90;;;;;;4867683;29;20049;-77
2021/06/25 05:20:49;;;;;;;16.98;12.45;;;18.90;99.90;;;;;;4865014;29;20026;-76
2021/06/25 05:23:16;;;;;;;15.02;11.88;;;19.00;99.90;;;;;;4860493;29;20029;-77
2021/06/25 05:25:43;;;;;;;13.18;11.82;;;19.10;99.90;;;;;;4860168;29;20519;-78
2021/06/25 05:28:09;;;;;;;12.95;11.05;;;19.20;99.90;;;;;;4859394;29;20491;-76
2021/06/25 05:30:36;;;;;;;13.90;12.00;;;19.10;99.90;;;;;;4859955;29;20036;-78
2021/06/25 05:33:03;;;;;;;15.57;11.10;;;19.20;99.90;;;;;;4857964;29;20089;-79
2021/06/25 05:35:31;;;;;;;13.60;12.07;;;19.40;99.90;;;;;;4858307;29;20025;-79
2021/06/25 05:38:06;;;;;;;13.75;11.98;;;19.40;99.90;;;;;;4854512;29;20021;-79
2021/06/25 05:40:32;;;;;;;13.25;11.85;;;19.40;99.90;;;;;;4858516;29;20507;-77
2021/06/25 05:42:57;;;;;;;15.10;12.15;;;19.30;99.90;;;;;;4861619;29;20113;-77
2021/06/25 05:45:23;;;;;;;12.80;11.32;;;19.30;99.90;;;;;;4860310;29;20034;-79
2021/06/25 05:47:50;;;;;;;12.18;10.88;;;19.30;99.90;;;;;;4857462;29;20116;-78
2021/06/25 05:50:16;;;;;;;12.50;10.73;;;19.30;99.90;;;;;;4857474;29;20078;-78
2021/06/25 05:52:44;;;;;;;15.38;11.90;;;19.30;99.90;;;;;;4860444;29;20033;-77
2021/06/25 05:55:10;;;;;;;15.15;11.60;;;19.30;99.90;;;;;;4852993;29;20033;-78
2021/06/25 05:57:36;;;;;;;14.13;11.40;;;19.40;99.90;;;;;;4856820;29;20049;-78
2021/06/25 06:00:04;;;;;;;14.38;10.90;;;19.50;99.90;;;;;;4857311;29;20030;-78
2021/06/25 06:02:30;;;;;;;16.58;10.43;;;19.60;99.90;;;;;;4859628;29;20029;-78
2021/06/25 06:04:55;;;;;;;12.95;10.30;;;19.50;99.90;;;;;;4852797;29;20052;-79
2021/06/25 06:07:21;;;;;;;11.15;9.68;;;19.60;99.90;;;;;;4857466;29;20040;-77
2021/06/25 06:09:46;;;;;;;15.90;10.23;;;19.70;99.90;;;;;;4857761;29;20025;-78
2021/06/25 06:12:12;;;;;;;13.35;9.60;;;19.80;99.90;;;;;;4857319;29;20033;-79
2021/06/25 06:14:37;;;;;;;12.88;9.70;;;19.90;99.90;;;;;;4856357;29;20033;-83
2021/06/25 06:17:03;;;;;;;10.88;9.57;;;20.00;99.90;;;;;;4858653;29;20026;-86
2021/06/25 06:19:39;;;;;;;14.00;9.48;;;20.30;99.90;;;;;;4843801;29;20104;-83
2021/06/25 06:33:09;;;;;;;11.60;8.73;;;20.60;99.90;;;;;;4858212;29;20089;-87
2021/06/25 06:35:37;;;;;;;10.50;8.70;;;20.70;99.90;;;;;;4859274;29;20026;-79
2021/06/25 06:38:03;;;;;;;10.35;8.57;;;20.60;99.90;;;;;;4856647;29;20044;-79
2021/06/25 06:40:32;;;;;;;9.82;8.10;;;20.60;99.90;;;;;;4854612;29;20030;-78
2021/06/25 06:42:58;;;;;;;13.10;8.90;;;20.70;99.90;;;;;;4856157;29;20029;-77
2021/06/25 06:45:27;;;;;;;13.82;8.85;;;20.70;99.90;;;;;;4856434;29;20037;-77
2021/06/25 06:47:52;;;;;;;10.93;8.18;;;20.80;99.90;;;;;;4853083;29;20675;-79
2021/06/25 06:50:19;;;;;;;10.95;8.18;;;20.90;99.90;;;;;;4859129;29;20060;-73
2021/06/25 06:52:50;;;;;;;9.63;7.30;;;20.90;99.90;;;;;;4856352;29;20486;-77
2021/06/25 06:55:19;;;;;;;16.90;9.02;;;20.70;99.90;;;;;;4856186;29;20045;-84
2021/06/25 06:57:45;;;;;;;10.07;8.23;;;20.40;99.90;;;;;;4856775;29;20049;-85
2021/06/25 07:00:11;;;;;;;16.67;8.85;;;20.50;99.90;;;;;;4857146;29;20026;-84
2021/06/25 07:02:39;;;;;;;14.18;8.95;;;20.60;99.90;;;;;;4857314;29;20498;-83
2021/06/25 07:05:06;;;;;;;14.48;10.05;;;20.60;99.90;;;;;;4856754;29;20040;-82
2021/06/25 07:07:32;;;;;;;21.08;10.63;;;20.80;99.90;;;;;;4856713;29;20061;-82
2021/06/25 07:09:58;;;;;;;17.85;8.88;;;20.90;99.90;;;;;;4857046;29;20076;-83
2021/06/25 07:12:24;;;;;;;21.25;9.18;;;21.10;99.90;;;;;;4857300;29;20037;-83
2021/06/25 07:14:50;;;;;;;29.40;10.85;;;21.20;99.90;;;;;;4857062;29;20229;-82
2021/06/25 07:17:15;;;;;;;8.88;7.78;;;21.20;99.90;;;;;;4853328;29;20120;-82
2021/06/25 07:19:41;;;;;;;10.57;7.30;;;21.40;99.90;;;;;;4852680;29;20135;-82
2021/06/25 07:22:06;;;;;;;12.10;7.25;;;21.30;99.90;;;;;;4852116;29;20490;-82
2021/06/25 07:24:32;;;;;;;11.70;7.65;;;21.30;99.90;;;;;;4856985;29;20076;-81
2021/06/25 07:26:58;;;;;;;8.98;7.47;;;21.50;99.90;;;;;;4856173;29;20121;-83
2021/06/25 07:29:23;;;;;;;10.40;7.50;;;21.50;99.90;;;;;;4852367;29;20191;-83
2021/06/25 07:31:49;;;;;;;9.63;7.13;;;21.20;99.90;;;;;;4858726;29;20029;-82
2021/06/25 07:34:15;;;;;;;9.05;7.63;;;21.20;99.90;;;;;;4849135;29;20546;-82
2021/06/25 07:36:41;;;;;;;11.85;6.97;;;21.20;99.90;;;;;;4855490;29;20029;-82
2021/06/25 07:39:08;;;;;;;8.23;7.10;;;21.00;99.90;;;;;;4856422;29;20032;-81
2021/06/25 07:41:33;;;;;;;12.65;7.72;;;21.10;99.90;;;;;;4855875;29;20403;-80
2021/06/25 07:43:59;;;;;;;19.23;12.80;;;21.00;99.90;;;;;;4856194;29;20025;-80
2021/06/25 07:46:24;;;;;;;229.35;184.00;;;21.00;99.90;;;;;;4856202;29;20021;-79
2021/06/25 07:48:50;;;;;;;12.52;9.27;;;20.80;99.90;;;;;;4856136;29;20038;-81
2021/06/25 07:51:16;;;;;;;13.20;8.43;;;20.80;99.90;;;;;;4851863;29;20116;-81
2021/06/25 07:53:41;;;;;;;12.43;7.72;;;20.80;99.90;;;;;;4842826;29;20395;-82
2021/06/25 07:56:07;;;;;;;14.35;8.13;;;20.60;99.90;;;;;;4855114;29;20040;-82
2021/06/25 07:58:32;;;;;;;12.93;7.90;;;20.50;99.90;;;;;;4857261;29;20034;-83
2021/06/25 08:00:58;;;;;;;12.00;8.15;;;20.50;99.90;;;;;;4851924;29;20522;-82
2021/06/25 08:03:23;;;;;;;12.13;8.68;;;20.60;99.90;;;;;;4858389;29;20026;-82
2021/06/25 08:05:49;;;;;;;12.95;8.70;;;20.60;99.90;;;;;;4857856;29;20121;-82
2021/06/25 08:08:15;;;;;;;13.82;8.18;;;20.60;99.90;;;;;;4862623;29;20044;-81
2021/06/25 08:10:40;;;;;;;9.57;6.95;;;20.70;99.90;;;;;;4859340;29;20402;-82
2021/06/25 08:13:06;;;;;;;11.00;7.78;;;20.70;99.90;;;;;;4856288;29;20074;-84
2021/06/25 08:15:32;;;;;;;12.05;7.60;;;20.70;99.90;;;;;;4860325;29;20698;-85
2021/06/25 08:17:58;;;;;;;9.23;7.00;;;20.70;99.90;;;;;;4859549;29;20029;-82
2021/06/25 08:20:23;;;;;;;14.60;7.63;;;20.80;99.90;;;;;;4860900;29;20130;-84
2021/06/25 08:22:49;;;;;;;15.15;8.05;;;21.20;99.90;;;;;;4859167;29;20053;-83
2021/06/25 08:25:15;;;;;;;9.98;7.68;;;22.80;99.90;;;;;;4857704;29;20060;-81
2021/06/25 08:27:40;;;;;;;8.00;7.20;;;24.60;98.20;;;;;;4856268;29;20033;-81
2021/06/25 08:30:06;;;;;;;10.73;8.10;;;25.90;95.00;;;;;;4852855;29;20356;-81
2021/06/25 08:32:36;;;;;;;7.20;6.43;;;27.50;91.00;;;;;;4857921;29;20038;-78
2021/06/25 08:35:02;;;;;;;8.65;7.85;;;27.70;86.70;;;;;;4856329;29;20392;-78
2021/06/25 08:37:28;;;;;;;14.32;6.85;;;28.20;83.90;;;;;;4857811;29;20030;-78
2021/06/25 08:39:56;;;;;;;11.23;6.57;;;27.90;79.00;;;;;;4854703;29;20096;-82
2021/06/25 08:42:22;;;;;;;17.13;7.75;;;27.80;79.20;;;;;;4854201;29;20479;-76
2021/06/25 08:44:47;;;;;;;8.98;6.32;;;27.10;80.30;;;;;;4857115;29;20124;-75
2021/06/25 08:47:13;;;;;;;16.70;6.63;;;27.30;80.20;;;;;;4857975;29;20033;-75
2021/06/25 08:49:42;;;;;;;8.73;6.47;;;26.90;79.90;;;;;;4857956;29;20025;-75
2021/06/25 08:52:09;;;;;;;8.57;6.70;;;26.90;78.50;;;;;;4857161;29;20045;-77
2021/06/25 08:54:34;;;;;;;11.65;8.60;;;26.20;79.40;;;;;;4857452;29;20041;-77
2021/06/25 08:57:03;;;;;;;7.70;6.10;;;26.70;79.30;;;;;;4857381;29;20057;-76
2021/06/25 08:59:29;;;;;;;8.15;6.40;;;26.70;80.00;;;;;;4856425;29;20025;-77
2021/06/25 09:01:56;;;;;;;6.47;5.88;;;27.80;77.30;;;;;;4856677;29;20033;-77
2021/06/25 09:04:34;;;;;;;8.05;6.07;;;28.20;75.80;;;;;;4857785;29;20026;-77
2021/06/25 09:07:00;;;;;;;8.27;7.30;;;28.60;72.30;;;;;;4853848;29;20490;-77
2021/06/25 09:09:48;;;;;;;10.63;7.10;;;29.50;70.50;;;;;;4857789;29;20033;-77
2021/06/25 09:12:20;;;;;;;10.25;7.22;;;30.10;67.70;;;;;;4856518;29;20040;-76
2021/06/25 09:15:15;;;;;;;10.10;6.03;;;30.10;67.50;;;;;;4858008;29;20029;-77
2021/06/25 09:17:58;;;;;;;10.98;8.40;;;29.60;66.40;;;;;;4847830;29;20514;-77
2021/06/25 09:20:38;;;;;;;9.50;6.75;;;29.90;67.40;;;;;;4858250;29;20033;-77
2021/06/25 09:23:16;;;;;;;5.28;4.78;;;31.50;62.70;;;;;;4854643;29;20431;-77
2021/06/25 09:26:09;;;;;;;6.47;5.65;;;30.80;63.40;;;;;;4858438;29;20033;-77
2021/06/25 09:28:46;;;;;;;6.95;5.18;;;28.60;64.40;;;;;;4843376;29;20065;-76
2021/06/25 09:31:23;;;;;;;7.43;5.70;;;27.30;67.50;;;;;;4856522;29;20097;-76
2021/06/25 09:33:57;;;;;;;9.18;6.38;;;27.20;68.20;;;;;;4856724;29;20067;-77
2021/06/25 09:36:28;;;;;;;9.30;5.68;;;25.20;72.50;;;;;;4856675;29;20145;-77
2021/06/25 09:38:57;;;;;;;9.57;6.88;;;25.00;72.70;;;;;;4853006;29;20025;-76
2021/06/25 09:41:22;;;;;;;11.45;7.07;;;25.00;73.40;;;;;;4856511;29;20172;-76
2021/06/25 09:44:03;;;;;;;18.20;7.00;;;25.60;74.00;;;;;;4859999;29;20518;-77
2021/06/25 09:46:30;;;;;;;;;;;27.00;70.50;;;;;;4837459;29;20518;-78
2021/06/25 09:49:01;;;;;;;8.15;7.32;;;27.40;69.10;;;;;;4855403;29;19920;-77
2021/06/25 09:51:27;;;;;;;12.65;7.32;;;28.10;67.50;;;;;;4849514;29;20128;-76
2021/06/25 09:54:14;;;;;;;10.55;5.57;;;28.60;66.40;;;;;;4854095;29;20150;-78
2021/06/25 09:56:46;;;;;;;6.72;6.13;;;28.80;65.00;;;;;;4851209;29;20045;-77
2021/06/25 09:59:36;;;;;;;6.65;5.60;;;28.10;63.50;;;;;;4855564;29;20498;-76
2021/06/25 10:02:21;;;;;;;7.65;5.72;;;26.50;65.80;;;;;;4850086;29;20030;-76
2021/06/25 10:04:50;;;;;;;10.27;5.43;;;25.80;69.10;;;;;;4825286;29;20077;-77
2021/06/25 10:07:23;;;;;;;7.85;5.32;;;25.20;70.90;;;;;;4844746;29;20041;-76
2021/06/25 10:09:50;;;;;;;8.70;5.82;;;25.10;71.80;;;;;;4856279;29;20041;-77
2021/06/25 10:12:19;;;;;;;8.35;6.68;;;25.10;71.60;;;;;;4852303;29;20048;-77
2021/06/25 10:14:46;;;;;;;8.68;5.82;;;24.60;73.00;;;;;;4839890;29;20033;-77
2021/06/25 10:17:12;;;;;;;8.68;7.07;;;24.00;74.30;;;;;;4856091;29;20120;-76
2021/06/25 10:19:44;;;;;;;8.18;5.75;;;23.90;75.70;;;;;;4856313;29;20030;-76
2021/06/25 10:22:11;;;;;;;12.27;5.90;;;23.80;76.20;;;;;;4853946;29;20530;-76
2021/06/25 10:24:38;;;;;;;9.40;5.85;;;24.00;76.30;;;;;;4856189;29;20041;-76
2021/06/25 10:27:05;;;;;;;8.40;6.82;;;23.70;75.30;;;;;;4839314;29;20451;-74
2021/06/25 10:29:34;;;;;;;9.43;6.18;;;23.90;75.50;;;;;;4855359;29;20030;-76
2021/06/25 10:32:01;;;;;;;8.93;8.02;;;24.00;74.40;;;;;;4855791;29;20033;-76
2021/06/25 10:34:31;;;;;;;9.63;6.40;;;24.20;74.40;;;;;;4855472;29;20064;-76
2021/06/25 10:36:57;;;;;;;8.00;6.10;;;24.80;73.10;;;;;;4856333;29;20029;-76
2021/06/25 10:39:23;;;;;;;9.40;5.97;;;26.80;71.30;;;;;;4855801;29;20037;-76
2021/06/25 10:41:49;;;;;;;8.73;7.82;;;28.40;66.60;;;;;;4855638;29;20032;-75
2021/06/25 10:44:35;;;;;;;10.73;6.45;;;28.00;66.80;;;;;;4847687;29;20041;-76
2021/06/25 10:47:34;;;;;;;7.60;6.15;;;29.40;65.20;;;;;;4855898;29;20049;-77
2021/06/25 10:50:03;;;;;;;9.93;5.72;;;30.10;62.80;;;;;;4852348;29;20022;-76
2021/06/25 10:52:30;;;;;;;5.70;4.93;;;28.90;62.00;;;;;;4855342;29;20070;-76
2021/06/25 10:55:09;;;;;;;25.92;23.52;;;28.60;63.50;;;;;;4851333;29;20286;-76
2021/06/25 10:57:36;;;;;;;9.48;8.55;;;27.50;65.90;;;;;;4852837;29;20526;-76
2021/06/25 11:00:05;;;;;;;7.43;6.63;;;26.80;67.70;;;;;;4856217;29;20114;-76
2021/06/25 11:02:47;;;;;;;7.70;6.38;;;26.90;67.10;;;;;;4855587;29;20030;-76
2021/06/25 11:05:24;;;;;;;6.47;5.88;;;26.60;68.40;;;;;;4854765;29;20259;-77
2021/06/25 11:07:51;;;;;;;6.18;5.43;;;26.30;69.00;;;;;;4837611;29;20124;-77
2021/06/25 11:10:29;;;;;;;8.38;7.10;;;25.80;69.80;;;;;;4851226;29;20309;-77
2021/06/25 11:13:13;;;;;;;6.80;6.10;;;25.60;70.30;;;;;;4855476;29;20447;-76
2021/06/25 11:15:47;;;;;;;6.32;5.72;;;26.20;69.20;;;;;;4853189;29;20029;-76
2021/06/25 11:18:16;;;;;;;7.80;6.53;;;25.80;68.90;;;;;;4853879;29;20056;-76
2021/06/25 11:21:03;;;;;;;14.00;12.50;;;25.80;69.70;;;;;;4855542;29;20029;-76
2021/06/25 11:23:40;;;;;;;6.43;5.68;;;26.00;69.50;;;;;;4848347;29;20386;-76
2021/06/25 11:26:21;;;;;;;8.20;5.40;;;25.70;70.10;;;;;;4853284;29;20037;-77
2021/06/25 11:28:48;;;;;;;9.70;5.93;;;25.30;68.20;;;;;;4851426;29;20036;-76
2021/06/25 11:31:13;;;;;;;8.57;6.78;;;25.10;69.90;;;;;;4855603;29;20433;-76
2021/06/25 11:33:48;;;;;;;9.02;5.82;;;25.10;70.40;;;;;;4855914;29;20041;-76
2021/06/25 11:36:14;;;;;;;10.68;6.75;;;24.40;70.90;;;;;;4855391;29;20089;-77
2021/06/25 11:39:04;;;;;;;11.52;7.38;;;24.50;69.30;;;;;;4854512;29;20109;-76
2021/06/25 11:41:35;;;;;;;5.82;5.22;;;24.50;70.10;;;;;;4854889;29;20034;-76
2021/06/25 11:44:22;;;;;;;5.85;4.10;;;24.70;68.60;;;;;;4855481;29;20093;-75
2021/06/25 11:47:08;;;;;;;11.45;7.13;;;25.00;67.20;;;;;;4858769;29;20152;-75
2021/06/25 11:49:44;;;;;;;5.68;4.95;;;25.10;66.70;;;;;;4851943;29;20048;-76
2021/06/25 11:52:13;;;;;;;10.70;8.20;;;25.70;63.90;;;;;;4858559;29;20033;-76
2021/06/25 11:54:40;;;;;;;5.15;4.35;;;27.10;63.30;;;;;;4858326;29;20086;-76
2021/06/25 11:57:16;;;;;;;6.13;4.70;;;27.40;61.40;;;;;;4858435;29;20037;-77
2021/06/25 12:00:13;;;;;;;5.82;5.22;;;27.90;61.20;;;;;;4856860;29;20044;-76
2021/06/25 12:02:42;;;;;;;7.45;5.10;;;28.80;60.00;;;;;;4857029;29;20037;-76
2021/06/25 12:05:09;;;;;;;9.00;6.63;;;29.20;60.00;;;;;;4858712;29;20186;-78
2021/06/25 12:07:35;;;;;;;4.47;4.00;;;29.50;60.00;;;;;;4858857;29;20116;-76
2021/06/25 12:10:00;;;;;;;8.10;4.65;;;30.30;58.60;;;;;;4854973;29;20380;-76
2021/06/25 12:12:28;;;;;;;7.35;4.63;;;30.50;57.30;;;;;;4858573;29;20033;-77
2021/06/25 12:14:56;;;;;;;7.35;6.38;;;29.40;58.30;;;;;;4858322;29;20463;-76
2021/06/25 12:17:23;;;;;;;5.78;4.53;;;29.10;58.50;;;;;;4855722;29;20037;-77
2021/06/25 12:20:01;;;;;;;5.30;4.80;;;29.00;59.40;;;;;;4858005;29;20195;-77
2021/06/25 12:22:27;;;;;;;5.57;4.60;;;28.90;58.00;;;;;;4855159;29;20045;-77
2021/06/25 12:24:56;;;;;;;8.07;4.93;;;28.10;58.30;;;;;;4842383;29;20033;-76
2021/06/25 12:27:35;;;;;;;5.47;4.88;;;27.80;59.40;;;;;;4858610;29;20029;-77
2021/06/25 12:30:06;;;;;;;12.27;10.75;;;28.20;59.70;;;;;;4854631;29;20160;-77
2021/06/25 12:32:32;;;;;;;8.57;5.53;;;28.60;58.30;;;;;;4858907;29;20033;-77
2021/06/25 12:34:57;;;;;;;4.88;4.35;;;28.60;59.20;;;;;;4858445;29;20038;-77
2021/06/25 12:37:23;;;;;;;7.03;4.55;;;28.20;58.90;;;;;;4855296;29;20034;-77
2021/06/25 12:39:49;;;;;;;8.05;7.20;;;28.10;59.20;;;;;;4845153;29;20029;-76
2021/06/25 12:42:21;;;;;;;5.35;4.88;;;28.00;59.00;;;;;;4857610;29;20486;-76
2021/06/25 12:44:47;;;;;;;4.53;4.10;;;27.10;60.80;;;;;;4856076;29;20166;-76
2021/06/25 12:47:13;;;;;;;5.97;4.38;;;27.40;60.30;;;;;;4857375;29;20037;-76
2021/06/25 12:49:40;;;;;;;6.88;3.78;;;27.20;59.80;;;;;;4852861;29;20072;-76
2021/06/25 12:52:25;;;;;;;5.80;5.30;;;28.20;60.20;;;;;;4853798;29;20084;-76
2021/06/25 12:54:53;;;;;;;9.20;7.22;;;29.80;57.10;;;;;;4858364;29;20041;-76